Latest Weather Observations for Adelaide (West Terrace / ngayirdapira)

IDS60801

Issued at 7:11 pm CDT Thursday 17 October 2019 (issued every 10 minutes, with the page automatically refreshed every 10 minutes)

About weather observations | Map of weather stations | Latest weather observations for SA | Other Formats
Station Details ID: 023000 Name: ADELAIDE (WEST TERRACE / NGAYIRDAPIRA) Lat: -34.93 Lon: 138.58 Height: 29.32 m
Data from the previous 72 hours. | See also: Recent months at Adelaide (West Terrace / ngayirdapira)
Date/Time
CDT
Temp
°C
App
Temp
°C
Dew
Point
°C
Rel
Hum
%
Delta-T
°C
Wind Press
QNH
hPa
Press
MSL
hPa
Rain since
9am
mm
Dir  Spd
km/h
Gust
km/h
Spd
kts
Gust
kts
17/07:00pm 14.1 11.5 4.4 52 4.5 WSW 7 11 4 6 1018.9 1018.9 0.0
17/06:30pm 14.7 11.9 5.0 52 4.5 W 9 11 5 6 1019.0 1019.0 0.0
17/06:00pm 15.1 11.9 5.0 51 4.7 W 11 15 6 8 1019.0 1019.0 0.0
17/05:30pm 15.7 12.3 3.8 45 5.5 WSW 11 19 6 10 1018.9 1018.9 0.0
17/05:00pm 15.8 12.1 4.5 47 5.3 SW 13 19 7 10 1018.7 1018.7 0.0
17/04:30pm 15.6 11.2 4.6 48 5.1 W 17 24 9 13 1018.7 1018.7 0.0
17/04:00pm 15.5 11.1 4.6 48 5.1 WSW 17 26 9 14 1018.8 1018.8 0.0
17/03:30pm 15.7 11.7 4.7 48 5.2 SW 15 22 8 12 1018.7 1018.7 0.0
17/03:00pm 15.4 11.3 4.2 47 5.2 SW 15 24 8 13 1018.8 1018.8 0.0
17/02:30pm 16.0 12.0 5.0 48 5.2 SW 15 28 8 15 1019.2 1019.2 0.0
17/02:00pm 15.7 11.6 4.1 46 5.4 SSW 15 22 8 12 1019.4 1019.4 0.0
17/01:30pm 15.4 10.4 3.5 45 5.4 WSW 19 32 10 17 1019.7 1019.7 0.0
17/01:00pm 14.6 9.6 3.7 48 5.0 WSW 19 33 10 18 1019.9 1019.9 0.0
17/12:30pm 15.1 10.0 3.3 45 5.3 WSW 19 30 10 16 1019.9 1019.9 0.0
17/12:00pm 14.5 9.3 2.4 44 5.3 WSW 19 28 10 15 1019.8 1019.8 0.0
17/11:30am 14.3 8.8 1.9 43 5.4 WSW 20 33 11 18 1019.7 1019.7 0.0
17/11:00am 14.3 8.8 1.6 42 5.5 SW 20 32 11 17 1019.8 1019.8 0.0
17/10:30am 14.1 8.9 3.6 49 4.7 SW 20 35 11 19 1019.8 1019.8 0.0
17/10:00am 13.9 8.9 4.5 53 4.3 SW 20 39 11 21 1019.5 1019.5 0.0
17/09:30am 13.5 8.3 3.6 51 4.5 SW 20 41 11 22 1019.0 1019.0 0.0
17/09:00am 12.9 6.8 2.7 50 4.5 SW 24 37 13 20 1018.7 1018.7 2.6
17/08:30am 12.5 6.7 4.5 58 3.6 WSW 24 41 13 22 1018.3 1018.3 2.6
17/08:00am 12.0 6.5 4.2 59 3.5 SW 22 35 12 19 1017.9 1017.9 2.6
17/07:30am 11.5 6.5 4.7 63 3.1 SW 20 30 11 16 1017.7 1017.7 2.6
17/07:00am 11.2 6.7 4.2 62 3.1 SW 17 30 9 16 1017.4 1017.4 2.6
17/06:30am 11.2 6.8 4.7 64 2.9 SW 17 30 9 16 1017.1 1017.1 2.6
17/06:00am 11.1 6.6 4.1 62 3.1 SW 17 28 9 15 1016.7 1016.7 2.6
17/05:30am 11.1 5.9 3.6 60 3.3 SW 20 41 11 22 1016.3 1016.3 2.6
17/05:00am 11.0 6.2 4.7 65 2.8 WSW 19 32 10 17 1016.0 1015.9 2.6
17/04:30am 11.4 6.7 5.1 65 2.9 SW 19 35 10 19 1016.0 1015.9 2.6
17/04:00am 11.4 6.6 4.6 63 3.1 SW 19 32 10 17 1016.0 1015.9 2.6
17/03:30am 11.6 6.2 4.6 62 3.2 SW 22 41 12 22 1015.9 1015.8 2.6
17/03:00am 11.8 6.5 5.0 63 3.1 WSW 22 37 12 20 1015.9 1015.8 2.6
17/02:30am 11.8 7.2 5.7 66 2.8 SW 19 35 10 19 1015.7 1015.6 2.6
17/02:00am 11.9 7.3 6.4 69 2.6 SW 20 32 11 17 1016.0 1015.9 2.6
17/01:30am 11.5 6.7 5.6 67 2.7 SW 20 37 11 20 1016.1 1016.0 2.6
17/01:00am 11.5 7.2 7.2 75 2.1 WSW 19 30 10 16 1016.1 1016.0 2.6
17/12:30am 10.4 7.0 7.5 82 1.4 W 15 28 8 15 1016.2 1016.2 2.6
17/12:27am 10.3 6.5 7.5 83 1.3 W 17 28 9 15 1016.3 1016.3 2.6
17/12:07am 10.4 4.7 6.9 79 1.7 WSW 26 50 14 27 1016.4 1016.4 2.2
17/12:06am 11.0 5.3 6.7 75 2.0 WSW 26 50 14 27 1016.3 1016.3 1.6
17/12:00am 12.6 7.7 5.3 61 3.4 W 20 37 11 20 1015.8 1015.7 1.2
 
Date/Time
CDT
Temp
°C
App
Temp
°C
Dew
Point
°C
Rel
Hum
%
Delta-T
°C
Wind Press
QNH
hPa
Press
MSL
hPa
Rain since
9am
mm
Dir  Spd
km/h
Gust
km/h
Spd
kts
Gust
kts
16/11:30pm 12.5 8.0 5.9 64 3.1 W 19 32 10 17 1015.7 1015.6 1.2
16/11:00pm 12.2 7.9 6.9 70 2.5 W 19 28 10 15 1015.8 1015.7 1.2
16/10:30pm 11.4 5.7 6.5 72 2.3 WSW 26 41 14 22 1015.8 1015.7 1.2
16/10:00pm 12.8 8.6 7.3 69 2.7 W 19 32 10 17 1015.4 1015.3 1.2
16/09:30pm 13.2 8.6 6.5 64 3.2 WSW 20 37 11 20 1015.5 1015.4 1.2
16/09:00pm 12.8 8.7 8.5 75 2.1 WSW 20 39 11 21 1015.5 1015.4 1.2
16/08:30pm 13.3 8.8 8.6 73 2.4 W 22 33 12 18 1014.9 1014.8 1.2
16/08:00pm 12.0 8.1 9.4 84 1.3 W 20 32 11 17 1014.8 1014.7 1.2
16/07:59pm 12.0 8.1 9.6 85 1.2 W 20 32 11 17 1014.8 1014.7 1.2
16/07:46pm 12.2 6.5 9.9 86 1.2 WSW 30 56 16 30 1014.7 1014.6 0.8
16/07:41pm 12.4 8.7 10.0 85 1.2 W 20 56 11 30 1014.6 1014.5 0.6
16/07:39pm 12.7 9.9 10.1 84 1.3 WNW 15 50 8 27 1014.5 1014.4 0.6
16/07:30pm 13.2 11.4 10.7 85 1.3 WNW 11 19 6 10 1014.2 1014.1 0.6
16/07:00pm 13.0 10.0 10.5 85 1.3 W 17 28 9 15 1014.1 1014.0 0.2
16/06:30pm 15.3 12.5 8.5 64 3.4 W 13 20 7 11 1013.6 1013.5 0.0
16/06:00pm 15.9 12.2 7.9 59 4.0 WSW 17 26 9 14 1013.4 1013.3 0.0
16/05:30pm 15.6 11.7 8.6 63 3.6 WSW 19 30 10 16 1013.5 1013.4 0.0
16/05:00pm 16.2 12.4 7.7 57 4.3 SW 17 26 9 14 1013.3 1013.2 0.0
16/04:30pm 15.8 11.7 7.8 59 4.0 WSW 19 35 10 19 1013.0 1012.9 0.0
16/04:00pm 16.7 12.2 7.1 53 4.8 WSW 20 32 11 17 1012.9 1012.8 0.0
16/03:30pm 16.0 11.3 5.0 48 5.2 WSW 19 32 10 17 1013.0 1012.9 0.0
16/03:00pm 16.7 11.9 5.6 48 5.4 WSW 20 32 11 17 1013.0 1012.9 0.0
16/02:30pm 16.2 12.1 7.7 57 4.3 WSW 19 30 10 16 1013.4 1013.3 0.0
16/02:00pm 16.2 11.9 6.9 54 4.6 WSW 19 33 10 18 1013.6 1013.5 0.0
16/01:30pm 16.3 12.2 7.8 57 4.3 SW 19 30 10 16 1013.8 1013.7 0.0
16/01:00pm 16.3 12.9 9.3 63 3.6 WSW 17 28 9 15 1013.8 1013.7 0.0
16/12:30pm 16.0 12.7 8.0 59 4.0 WSW 15 28 8 15 1013.8 1013.7 0.0
16/12:00pm 15.7 12.5 8.4 62 3.7 SW 15 26 8 14 1013.9 1013.8 0.0
16/11:30am 16.0 12.8 9.9 67 3.2 SW 17 24 9 13 1013.8 1013.7 0.0
16/11:00am 14.6 11.5 10.2 75 2.3 SW 17 28 9 15 1014.0 1013.9 0.0
16/10:38am 14.5 12.0 10.9 79 1.9 SW 15 20 8 11 1013.8 1013.7 0.0
16/10:30am 14.7 12.7 11.5 81 1.7 SW 13 20 7 11 1013.8 1013.7 0.0
16/10:28am 14.5 12.4 11.3 81 1.7 SW 13 20 7 11 1013.8 1013.7 0.0
16/10:01am 13.7 11.7 11.4 86 1.2 SW 13 20 7 11 1013.8 1013.7 0.0
16/10:00am 13.9 12.4 11.8 87 1.1 SW 11 19 6 10 1013.8 1013.7 0.0
16/09:30am 13.6 13.1 12.5 93 0.6 SW 7 15 4 8 1013.9 1013.8 0.0
16/09:13am 13.3 12.8 12.2 93 0.6 SW 6 11 3 6 1013.9 1013.8 0.0
16/09:09am 13.0 12.3 11.9 93 0.6 SW 7 11 4 6 1013.9 1013.8 0.0
16/09:06am 13.0 11.9 11.9 93 0.6 SW 9 15 5 8 1014.0 1013.9 0.0
16/09:00am 12.7 10.7 11.4 92 0.7 WSW 13 20 7 11 1014.1 1014.0 5.8
16/08:50am 13.2 12.1 12.1 93 0.6 WSW 9 19 5 10 1014.2 1014.1 5.6
16/08:48am 13.2 12.5 11.9 92 0.7 WSW 7 17 4 9 1014.1 1014.0 5.6
16/08:30am 13.2 12.8 12.3 94 0.5 WSW 6 9 3 5 1013.9 1013.8 5.6
16/08:18am 13.1 12.5 12.2 94 0.5 WSW 7 9 4 5 1014.0 1013.9 5.6
16/08:00am 13.2 12.2 12.3 94 0.5 W 9 13 5 7 1013.9 1013.8 5.6
16/07:30am 13.1 13.8 12.2 94 0.5 CALM 0 0 0 0 1013.4 1013.3 5.4
16/07:18am 12.9 13.5 12.0 94 0.5 CALM 0 0 0 0 1013.3 1013.2 5.4
16/07:00am 12.9 13.5 12.0 94 0.5 CALM 0 0 0 0 1013.0 1012.9 5.4
16/06:32am 12.7 12.4 11.6 93 0.6 SSE 4 7 2 4 1012.6 1012.5 5.0
16/06:30am 12.7 12.4 11.6 93 0.6 SSE 4 7 2 4 1012.5 1012.4 5.0
16/06:14am 12.8 12.2 11.7 93 0.6 S 6 11 3 6 1012.5 1012.4 4.6
16/06:11am 12.8 12.6 11.7 93 0.6 S 4 11 2 6 1012.7 1012.6 4.4
16/06:00am 12.9 13.5 11.8 93 0.6 CALM 0 0 0 0 1012.7 1012.6 3.6
16/05:45am 12.9 13.5 11.8 93 0.6 CALM 0 0 0 0 1012.3 1012.2 3.6
16/05:30am 12.8 13.3 11.7 93 0.6 CALM 0 0 0 0 1012.2 1012.1 3.6
16/05:00am 12.8 12.9 11.4 91 0.7 SE 2 7 1 4 1012.1 1012.0 3.6
16/04:30am 13.0 12.4 11.7 92 0.7 SSW 6 7 3 4 1012.2 1012.1 3.6
16/04:00am 13.0 12.4 11.6 91 0.7 SSE 6 9 3 5 1012.2 1012.1 3.6
16/03:30am 13.2 12.6 11.8 91 0.7 SSW 6 7 3 4 1012.6 1012.5 3.0
16/03:00am 13.4 12.5 11.5 88 1.0 S 7 9 4 5 1011.8 1011.7 2.4
16/02:30am 13.2 13.4 10.7 85 1.3 CALM 0 0 0 0 1011.5 1011.4 1.8
16/02:00am 13.6 12.4 10.4 81 1.7 SE 7 11 4 6 1011.6 1011.5 1.8
16/01:30am 13.9 12.2 9.9 77 2.1 SE 9 13 5 7 1012.2 1012.1 1.8
16/01:00am 13.3 12.4 10.7 84 1.4 SSE 6 9 3 5 1013.2 1013.1 1.8
16/12:30am 13.4 12.4 10.9 85 1.3 ESE 7 11 4 6 1013.2 1013.1 1.8
16/12:00am 13.6 13.0 11.7 88 1.0 SE 6 9 3 5 1013.7 1013.6 1.8
 
Date/Time
CDT
Temp
°C
App
Temp
°C
Dew
Point
°C
Rel
Hum
%
Delta-T
°C
Wind Press
QNH
hPa
Press
MSL
hPa
Rain since
9am
mm
Dir  Spd
km/h
Gust
km/h
Spd
kts
Gust
kts
15/11:30pm 13.7 12.9 11.8 88 1.0 SE 7 13 4 7 1013.9 1013.8 1.6
15/11:00pm 14.0 14.5 12.9 93 0.6 SE 2 7 1 4 1014.5 1014.4 1.6
15/10:30pm 13.9 14.7 12.6 92 0.7 CALM 0 0 0 0 1014.8 1014.7 1.4
15/10:00pm 13.8 14.6 12.5 92 0.7 CALM 0 7 0 4 1014.9 1014.8 1.4
15/09:35pm 14.0 14.8 12.4 90 0.9 CALM 0 0 0 0 1015.6 1015.5 1.2
15/09:30pm 14.0 14.3 12.2 89 1.0 SW 2 7 1 4 1015.5 1015.4 1.2
15/09:15pm 14.3 13.7 11.8 85 1.3 W 6 7 3 4 1015.7 1015.6 0.8
15/09:00pm 14.5 13.8 11.3 81 1.7 NNE 6 9 3 5 1014.8 1014.7 0.0
15/08:30pm 14.7 15.1 11.3 80 1.8 CALM 0 0 0 0 1014.7 1014.6 0.0
15/08:00pm 14.7 13.3 10.9 78 2.0 S 9 19 5 10 1014.3 1014.2 0.0
15/07:30pm 14.6 12.0 10.8 78 2.0 SW 15 26 8 14 1014.1 1014.0 0.0
15/07:00pm 15.9 14.6 10.0 68 3.1 SSW 7 11 4 6 1013.4 1013.3 0.0
15/06:30pm 16.0 14.7 9.9 67 3.2 SSW 7 15 4 8 1013.5 1013.4 0.0
15/06:00pm 16.7 15.4 11.4 71 2.9 SW 9 13 5 7 1013.8 1013.7 0.0
15/05:30pm 15.6 13.1 8.4 62 3.6 SW 11 20 6 11 1014.1 1014.0 0.0
15/05:00pm 16.5 14.9 10.1 66 3.4 SW 9 17 5 9 1013.5 1013.4 0.0
15/04:30pm 16.2 14.1 9.8 66 3.3 WSW 11 17 6 9 1013.9 1013.8 0.0
15/04:00pm 16.0 14.8 9.4 65 3.4 SW 6 11 3 6 1013.6 1013.5 0.0
15/03:30pm 15.2 13.7 9.3 68 3.0 SW 7 13 4 7 1014.3 1014.2 0.0
15/03:00pm 15.2 12.7 9.6 69 2.9 SW 13 20 7 11 1015.0 1014.9 0.0
15/02:30pm 15.8 13.2 9.5 66 3.3 SW 13 20 7 11 1014.5 1014.4 0.0
15/02:00pm 16.3 13.6 9.0 62 3.8 WSW 13 20 7 11 1014.6 1014.5 0.0
15/01:30pm 17.2 14.2 9.4 60 4.1 WSW 15 20 8 11 1014.6 1014.5 0.0
15/01:00pm 18.4 16.3 8.4 52 5.2 SW 9 15 5 8 1014.6 1014.5 0.0
15/12:30pm 17.8 16.3 9.2 57 4.5 SSE 7 15 4 8 1014.7 1014.6 0.0
15/12:00pm 17.7 14.7 9.3 58 4.4 WSW 15 20 8 11 1015.8 1015.7 0.0
15/11:30am 16.7 13.4 9.4 62 3.8 WSW 17 24 9 13 1016.2 1016.2 0.0
15/11:00am 18.8 17.0 7.9 49 5.6 NW 7 17 4 9 1016.1 1016.0 0.0
15/10:30am 17.3 15.2 5.9 47 5.6 NNW 6 11 3 6 1015.7 1015.6 0.0
15/10:00am 15.8 13.6 5.1 49 5.1 NNW 6 9 3 5 1015.6 1015.5 0.0
15/09:30am 15.2 13.5 7.5 60 3.8 NNW 6 9 3 5 1015.7 1015.6 0.0
15/09:00am 13.8 11.8 6.9 63 3.3 N 7 11 4 6 1015.6 1015.5 0.0
15/08:30am 12.0 11.5 7.7 75 2.1 CALM 0 6 0 3 1015.7 1015.6 0.0
15/08:00am 10.6 10.4 9.0 90 0.8 CALM 0 0 0 0 1016.1 1016.0 0.0
15/07:30am 9.1 8.7 8.2 94 0.4 CALM 0 0 0 0 1016.1 1016.0 0.0
15/07:00am 7.8 7.1 7.1 95 0.3 CALM 0 0 0 0 1016.0 1015.9 0.0
15/06:30am 6.9 6.0 6.0 94 0.4 CALM 0 0 0 0 1015.9 1015.8 0.0
15/06:00am 7.5 6.7 6.6 94 0.4 CALM 0 0 0 0 1015.8 1015.7 0.0
15/05:30am 8.2 7.5 7.1 93 0.5 CALM 0 0 0 0 1015.7 1015.6 0.0
15/05:00am 8.9 8.3 7.5 91 0.7 CALM 0 0 0 0 1015.7 1015.6 0.0
15/04:30am 9.5 7.9 8.1 91 0.7 NNE 6 9 3 5 1015.9 1015.8 0.0
15/04:00am 9.5 9.1 8.1 91 0.7 CALM 0 0 0 0 1015.7 1015.6 0.0
15/03:30am 9.0 8.4 7.6 91 0.7 CALM 0 0 0 0 1015.5 1015.4 0.0
15/03:00am 9.0 8.4 7.3 89 0.8 CALM 0 6 0 3 1015.1 1015.0 0.0
15/02:30am 9.9 8.3 7.8 87 1.0 ESE 6 7 3 4 1015.1 1015.0 0.0
15/02:00am 9.6 7.8 8.0 90 0.8 SSE 7 9 4 5 1015.5 1015.4 0.0
15/01:30am 9.8 9.4 8.1 89 0.8 CALM 0 6 0 3 1016.1 1016.0 0.0
15/01:00am 10.3 8.7 8.2 87 1.0 S 6 7 3 4 1016.5 1016.5 0.0
15/12:30am 11.1 9.6 8.5 84 1.3 SE 6 7 3 4 1016.7 1016.7 0.0
15/12:00am 11.5 10.0 8.5 82 1.5 SSE 6 9 3 5 1017.0 1017.0 0.0
 
Date/Time
CDT
Temp
°C
App
Temp
°C
Dew
Point
°C
Rel
Hum
%
Delta-T
°C
Wind Press
QNH
hPa
Press
MSL
hPa
Rain since
9am
mm
Dir  Spd
km/h
Gust
km/h
Spd
kts
Gust
kts
14/11:30pm 11.9 10.3 8.9 82 1.5 SE 7 11 4 6 1017.0 1017.0 0.0
14/11:00pm 12.0 10.6 8.8 81 1.6 SSE 6 9 3 5 1017.4 1017.4 0.0
14/10:30pm 12.5 10.7 9.3 81 1.6 S 9 13 5 7 1017.3 1017.3 0.0
14/10:00pm 13.0 11.3 9.8 81 1.6 SSE 9 15 5 8 1017.2 1017.2 0.0
14/09:30pm 13.4 12.3 10.6 83 1.5 SSW 7 11 4 6 1017.2 1017.2 0.0
14/09:00pm 13.5 12.0 10.5 82 1.6 SSW 9 13 5 7 1017.0 1017.0 0.0
14/08:30pm 13.9 12.0 10.5 80 1.8 SSW 11 17 6 9 1016.5 1016.5 0.0
14/08:00pm 14.2 12.4 10.8 80 1.8 SSW 11 20 6 11 1016.1 1016.0 0.0
14/07:30pm 14.9 12.2 10.3 74 2.4 SW 15 22 8 12 1015.8 1015.7 0.0

Other formats

Comma delimited format used in spreadsheet applications
http://www.bom.gov.au/fwo/IDS60801/IDS60801.94648.axf

JavaScript Object Notation format (JSON) in row-major order
http://www.bom.gov.au/fwo/IDS60801/IDS60801.94648.json

Data quality

Most of these data are generated automatically and are frequently updated. Quality checks on data are not normally performed. It is possible for incorrect values to appear. Refer to information at About Latest Weather Observations and please check the disclaimer before using these data.